sensor_id;sensor_type;location;lat;lon;timestamp;pressure;altitude;pressure_sealevel;temperature;humidity
60307;BME280;46155;52.364;6.580;2023-04-10T03:02:50;101754.09;;;7.49;80.11
60307;BME280;46155;52.364;6.580;2023-04-10T03:05:17;101758.28;;;7.47;80.86
60307;BME280;46155;52.364;6.580;2023-04-10T03:07:42;101761.69;;;7.46;80.93
60307;BME280;46155;52.364;6.580;2023-04-10T03:10:08;101758.16;;;7.46;80.83
60307;BME280;46155;52.364;6.580;2023-04-10T03:12:33;101760.91;;;7.47;81.47
60307;BME280;46155;52.364;6.580;2023-04-10T03:14:58;101753.84;;;7.46;80.86
60307;BME280;46155;52.364;6.580;2023-04-10T03:17:24;101753.84;;;7.46;80.80
60307;BME280;46155;52.364;6.580;2023-04-10T03:19:49;101753.84;;;7.46;81.23
60307;BME280;46155;52.364;6.580;2023-04-10T03:22:15;101754.88;;;7.48;81.24
60307;BME280;46155;52.364;6.580;2023-04-10T03:24:40;101754.09;;;7.49;80.63
60307;BME280;46155;52.364;6.580;2023-04-10T03:27:05;101756.31;;;7.45;81.11
60307;BME280;46155;52.364;6.580;2023-04-10T03:29:31;101745.03;;;7.35;81.17
60307;BME280;46155;52.364;6.580;2023-04-10T03:31:56;101755.91;;;7.40;81.55
60307;BME280;46155;52.364;6.580;2023-04-10T03:34:21;101752.50;;;7.41;81.72
60307;BME280;46155;52.364;6.580;2023-04-10T03:36:47;101755.13;;;7.41;82.06
60307;BME280;46155;52.364;6.580;2023-04-10T03:39:12;101754.22;;;7.40;81.87
60307;BME280;46155;52.364;6.580;2023-04-10T03:41:37;101750.41;;;7.37;81.68
60307;BME280;46155;52.364;6.580;2023-04-10T03:44:03;101758.22;;;7.37;81.66
60307;BME280;46155;52.364;6.580;2023-04-10T03:46:28;101752.25;;;7.38;81.76
60307;BME280;46155;52.364;6.580;2023-04-10T03:48:54;101751.97;;;7.35;81.71
60307;BME280;46155;52.364;6.580;2023-04-10T03:51:19;101740.31;;;7.31;82.06
60307;BME280;46155;52.364;6.580;2023-04-10T03:53:45;101751.06;;;7.34;81.88
60307;BME280;46155;52.364;6.580;2023-04-10T03:56:11;101749.72;;;7.29;81.98
60307;BME280;46155;52.364;6.580;2023-04-10T03:58:36;101755.88;;;7.30;82.12
60307;BME280;46155;52.364;6.580;2023-04-10T04:01:01;101750.63;;;7.30;82.21
60307;BME280;46155;52.364;6.580;2023-04-10T04:03:27;101747.88;;;7.28;82.37
60307;BME280;46155;52.364;6.580;2023-04-10T04:05:52;101755.59;;;7.27;82.43
60307;BME280;46155;52.364;6.580;2023-04-10T04:08:17;101753.75;;;7.26;82.62
60307;BME280;46155;52.364;6.580;2023-04-10T04:10:43;101729.94;;;7.12;82.51
60307;BME280;46155;52.364;6.580;2023-04-10T04:13:08;101744.59;;;7.20;82.72
60307;BME280;46155;52.364;6.580;2023-04-10T04:15:33;101749.84;;;7.20;82.98
60307;BME280;46155;52.364;6.580;2023-04-10T04:17:59;101749.34;;;7.24;83.53
60307;BME280;46155;52.364;6.580;2023-04-10T04:20:25;101729.72;;;7.19;83.61
60307;BME280;46155;52.364;6.580;2023-04-10T04:22:50;101740.69;;;7.26;83.75
60307;BME280;46155;52.364;6.580;2023-04-10T04:25:15;101737.31;;;7.27;83.70
60307;BME280;46155;52.364;6.580;2023-04-10T04:27:40;101736.91;;;7.22;83.95
60307;BME280;46155;52.364;6.580;2023-04-10T04:30:06;101731.81;;;7.23;83.80
60307;BME280;46155;52.364;6.580;2023-04-10T04:32:32;101729.47;;;7.27;83.69
60307;BME280;46155;52.364;6.580;2023-04-10T04:34:57;101726.09;;;7.28;83.44
60307;BME280;46155;52.364;6.580;2023-04-10T04:37:22;101727.50;;;7.24;83.46
60307;BME280;46155;52.364;6.580;2023-04-10T04:39:48;101730.91;;;7.23;83.55
60307;BME280;46155;52.364;6.580;2023-04-10T04:42:13;101708.16;;;7.12;83.53
60307;BME280;46155;52.364;6.580;2023-04-10T04:44:38;101717.94;;;7.14;83.42
60307;BME280;46155;52.364;6.580;2023-04-10T04:47:03;101724.09;;;7.15;83.55
60307;BME280;46155;52.364;6.580;2023-04-10T04:49:29;101721.03;;;7.10;84.12
60307;BME280;46155;52.364;6.580;2023-04-10T04:51:54;101722.34;;;7.05;83.80
60307;BME280;46155;52.364;6.580;2023-04-10T04:54:19;101722.06;;;7.02;84.27
60307;BME280;46155;52.364;6.580;2023-04-10T04:56:45;101715.38;;;6.95;83.88
60307;BME280;46155;52.364;6.580;2023-04-10T04:59:10;101720.88;;;6.98;83.68
60307;BME280;46155;52.364;6.580;2023-04-10T05:01:35;101724.13;;;6.96;84.08
60307;BME280;46155;52.364;6.580;2023-04-10T05:04:01;101707.78;;;6.88;84.73
60307;BME280;46155;52.364;6.580;2023-04-10T05:06:26;101705.34;;;7.00;86.22
60307;BME280;46155;52.364;6.580;2023-04-10T05:08:51;101707.22;;;7.11;84.90
60307;BME280;46155;52.364;6.580;2023-04-10T05:11:17;101705.94;;;7.16;85.25
60307;BME280;46155;52.364;6.580;2023-04-10T05:13:43;101709.47;;;7.27;84.19
60307;BME280;46155;52.364;6.580;2023-04-10T05:16:08;101702.97;;;7.22;83.64
60307;BME280;46155;52.364;6.580;2023-04-10T05:18:34;101705.16;;;7.17;84.31
60307;BME280;46155;52.364;6.580;2023-04-10T05:21:00;101692.19;;;7.09;84.39
60307;BME280;46155;52.364;6.580;2023-04-10T05:23:26;101698.34;;;7.09;84.31
60307;BME280;46155;52.364;6.580;2023-04-10T05:25:51;101694.41;;;7.04;84.65
60307;BME280;46155;52.364;6.580;2023-04-10T05:28:16;101702.94;;;7.12;85.03
60307;BME280;46155;52.364;6.580;2023-04-10T05:30:42;101709.31;;;7.15;84.91
60307;BME280;46155;52.364;6.580;2023-04-10T05:33:07;101704.88;;;7.14;84.48
60307;BME280;46155;52.364;6.580;2023-04-10T05:35:32;101715.63;;;7.17;84.66
60307;BME280;46155;52.364;6.580;2023-04-10T05:37:58;101708.81;;;7.19;85.03
60307;BME280;46155;52.364;6.580;2023-04-10T05:40:24;101696.03;;;7.22;84.64
60307;BME280;46155;52.364;6.580;2023-04-10T05:42:50;101694.19;;;7.21;84.31
60307;BME280;46155;52.364;6.580;2023-04-10T05:45:16;101693.16;;;7.30;84.22
60307;BME280;46155;52.364;6.580;2023-04-10T05:47:42;101702.22;;;7.33;84.25
60307;BME280;46155;52.364;6.580;2023-04-10T05:50:08;101695.53;;;7.37;84.27
60307;BME280;46155;52.364;6.580;2023-04-10T05:52:33;101681.94;;;7.31;84.02
60307;BME280;46155;52.364;6.580;2023-04-10T05:54:59;101690.63;;;7.40;84.34
60307;BME280;46155;52.364;6.580;2023-04-10T05:57:24;101688.53;;;7.46;84.16
60307;BME280;46155;52.364;6.580;2023-04-10T05:59:49;101684.34;;;7.48;83.54
60307;BME280;46155;52.364;6.580;2023-04-10T06:02:15;101689.59;;;7.58;84.11
60307;BME280;46155;52.364;6.580;2023-04-10T06:04:40;101688.53;;;7.67;83.87
60307;BME280;46155;52.364;6.580;2023-04-10T06:07:06;101698.34;;;7.69;83.54
60307;BME280;46155;52.364;6.580;2023-04-10T06:09:31;101693.00;;;7.78;83.29
60307;BME280;46155;52.364;6.580;2023-04-10T06:11:57;101681.38;;;7.85;82.99
60307;BME280;46155;52.364;6.580;2023-04-10T06:14:22;101681.94;;;7.91;82.69
60307;BME280;46155;52.364;6.580;2023-04-10T06:16:47;101682.03;;;8.03;82.74
60307;BME280;46155;52.364;6.580;2023-04-10T06:19:12;101671.84;;;8.06;82.04
60307;BME280;46155;52.364;6.580;2023-04-10T06:21:38;101681.63;;;8.19;81.52
60307;BME280;46155;52.364;6.580;2023-04-10T06:24:03;101669.97;;;8.36;81.82
60307;BME280;46155;52.364;6.580;2023-04-10T06:26:28;101670.59;;;8.64;82.17
60307;BME280;46155;52.364;6.580;2023-04-10T06:28:54;101679.66;;;8.90;80.34
60307;BME280;46155;52.364;6.580;2023-04-10T06:31:20;101663.53;;;8.95;78.58
60307;BME280;46155;52.364;6.580;2023-04-10T06:33:48;101674.34;;;9.10;77.59
60307;BME280;46155;52.364;6.580;2023-04-10T06:36:14;101666.91;;;9.05;76.60
60307;BME280;46155;52.364;6.580;2023-04-10T06:38:40;101646.53;;;8.90;77.05
60307;BME280;46155;52.364;6.580;2023-04-10T06:41:05;101645.50;;;8.88;76.92
60307;BME280;46155;52.364;6.580;2023-04-10T06:43:34;101641.19;;;8.89;77.67
60307;BME280;46155;52.364;6.580;2023-04-10T06:46:01;101641.19;;;8.89;77.62
60307;BME280;46155;52.364;6.580;2023-04-10T06:48:27;101644.34;;;8.85;77.81
60307;BME280;46155;52.364;6.580;2023-04-10T06:50:53;101638.69;;;8.90;78.62
60307;BME280;46155;52.364;6.580;2023-04-10T06:53:18;101644.41;;;8.96;78.92
60307;BME280;46155;52.364;6.580;2023-04-10T06:55:43;101638.56;;;9.11;79.53
60307;BME280;46155;52.364;6.580;2023-04-10T06:58:08;101630.19;;;9.37;78.74
60307;BME280;46155;52.364;6.580;2023-04-10T07:00:34;101621.94;;;9.67;78.09
60307;BME280;46155;52.364;6.580;2023-04-10T07:02:59;101622.41;;;10.07;75.92
60307;BME280;46155;52.364;6.580;2023-04-10T07:05:24;101612.06;;;10.44;74.53
60307;BME280;46155;52.364;6.580;2023-04-10T07:07:50;101615.00;;;10.60;72.55
60307;BME280;46155;52.364;6.580;2023-04-10T07:10:15;101617.06;;;10.64;71.32
60307;BME280;46155;52.364;6.580;2023-04-10T07:12:42;101622.53;;;10.56;72.48
60307;BME280;46155;52.364;6.580;2023-04-10T07:15:07;101613.41;;;10.62;72.98
60307;BME280;46155;52.364;6.580;2023-04-10T07:17:33;101606.56;;;10.64;71.14
60307;BME280;46155;52.364;6.580;2023-04-10T07:19:58;101594.91;;;10.73;72.83
60307;BME280;46155;52.364;6.580;2023-04-10T07:22:23;101596.38;;;10.81;71.12
60307;BME280;46155;52.364;6.580;2023-04-10T07:24:49;101590.72;;;11.00;69.59
60307;BME280;46155;52.364;6.580;2023-04-10T07:27:14;101587.00;;;11.22;69.60
60307;BME280;46155;52.364;6.580;2023-04-10T07:29:41;101583.13;;;11.67;68.59
60307;BME280;46155;52.364;6.580;2023-04-10T07:32:06;101578.16;;;11.97;67.43
60307;BME280;46155;52.364;6.580;2023-04-10T07:34:32;101576.69;;;11.88;65.32
60307;BME280;46155;52.364;6.580;2023-04-10T07:36:57;101588.00;;;11.99;65.03
60307;BME280;46155;52.364;6.580;2023-04-10T07:39:22;101573.41;;;12.04;64.18
60307;BME280;46155;52.364;6.580;2023-04-10T07:41:47;101560.47;;;12.34;63.44
60307;BME280;46155;52.364;6.580;2023-04-10T07:44:13;101569.28;;;12.35;61.76
60307;BME280;46155;52.364;6.580;2023-04-10T07:46:39;101554.88;;;12.43;62.16
60307;BME280;46155;52.364;6.580;2023-04-10T07:49:04;101552.38;;;12.45;61.81
60307;BME280;46155;52.364;6.580;2023-04-10T07:51:29;101540.19;;;12.47;61.76
60307;BME280;46155;52.364;6.580;2023-04-10T07:53:55;101539.31;;;12.46;63.43
60307;BME280;46155;52.364;6.580;2023-04-10T07:56:20;101531.06;;;12.55;62.92
60307;BME280;46155;52.364;6.580;2023-04-10T07:58:46;101517.81;;;12.53;60.10
60307;BME280;46155;52.364;6.580;2023-04-10T08:01:12;101523.97;;;12.54;61.53
60307;BME280;46155;52.364;6.580;2023-04-10T08:03:42;101507.22;;;12.67;62.29
60307;BME280;46155;52.364;6.580;2023-04-10T08:06:08;101514.38;;;12.83;61.05
60307;BME280;46155;52.364;6.580;2023-04-10T08:08:38;101505.72;;;12.70;60.08
60307;BME280;46155;52.364;6.580;2023-04-10T08:11:07;101506.63;;;12.71;60.03
60307;BME280;46155;52.364;6.580;2023-04-10T08:13:32;101504.88;;;12.71;60.24
60307;BME280;46155;52.364;6.580;2023-04-10T08:15:57;101487.22;;;12.84;61.66
60307;BME280;46155;52.364;6.580;2023-04-10T08:18:23;101500.03;;;12.78;60.54
60307;BME280;46155;52.364;6.580;2023-04-10T08:20:48;101498.91;;;12.74;58.69
60307;BME280;46155;52.364;6.580;2023-04-10T08:23:13;101495.00;;;12.67;59.68
60307;BME280;46155;52.364;6.580;2023-04-10T08:25:39;101488.13;;;12.56;59.77
60307;BME280;46155;52.364;6.580;2023-04-10T08:28:04;101489.31;;;12.61;61.84
60307;BME280;46155;52.364;6.580;2023-04-10T08:30:29;101482.00;;;12.70;61.61
60307;BME280;46155;52.364;6.580;2023-04-10T08:32:55;101480.50;;;12.61;60.55
60307;BME280;46155;52.364;6.580;2023-04-10T08:35:20;101483.94;;;12.73;60.56
60307;BME280;46155;52.364;6.580;2023-04-10T08:37:46;101479.38;;;12.70;61.58
60307;BME280;46155;52.364;6.580;2023-04-10T08:40:11;101482.56;;;12.80;61.97
60307;BME280;46155;52.364;6.580;2023-04-10T08:42:37;101485.81;;;12.75;60.16
60307;BME280;46155;52.364;6.580;2023-04-10T08:45:02;101472.03;;;12.80;60.47
60307;BME280;46155;52.364;6.580;2023-04-10T08:47:28;101472.44;;;12.86;61.43
60307;BME280;46155;52.364;6.580;2023-04-10T08:50:00;101467.16;;;12.86;61.94
60307;BME280;46155;52.364;6.580;2023-04-10T08:52:31;101475.38;;;13.05;59.88
60307;BME280;46155;52.364;6.580;2023-04-10T08:54:59;101466.03;;;13.11;61.63
60307;BME280;46155;52.364;6.580;2023-04-10T08:57:27;101478.88;;;13.34;61.22
60307;BME280;46155;52.364;6.580;2023-04-10T08:59:53;101474.91;;;13.56;59.52
60307;BME280;46155;52.364;6.580;2023-04-10T09:02:18;101462.34;;;13.82;58.80
60307;BME280;46155;52.364;6.580;2023-04-10T09:04:49;101472.59;;;14.07;58.52
60307;BME280;46155;52.364;6.580;2023-04-10T09:07:15;101473.38;;;14.21;57.70
60307;BME280;46155;52.364;6.580;2023-04-10T09:09:41;101476.84;;;14.20;56.42
60307;BME280;46155;52.364;6.580;2023-04-10T09:12:07;101465.84;;;14.12;57.53
60307;BME280;46155;52.364;6.580;2023-04-10T09:14:33;101459.16;;;14.19;56.29
60307;BME280;46155;52.364;6.580;2023-04-10T09:19:36;101455.22;;;14.10;57.34
60307;BME280;46155;52.364;6.580;2023-04-10T09:22:02;101458.66;;;14.09;55.63
60307;BME280;46155;52.364;6.580;2023-04-10T09:24:27;101452.03;;;14.01;55.39
60307;BME280;46155;52.364;6.580;2023-04-10T09:26:53;101446.75;;;14.01;57.77
60307;BME280;46155;52.364;6.580;2023-04-10T09:29:18;101446.03;;;14.04;55.82
60307;BME280;46155;52.364;6.580;2023-04-10T09:31:44;101436.03;;;14.15;57.09
60307;BME280;46155;52.364;6.580;2023-04-10T09:36:39;101429.47;;;14.23;56.15
60307;BME280;46155;52.364;6.580;2023-04-10T09:39:06;101431.63;;;14.30;56.35
60307;BME280;46155;52.364;6.580;2023-04-10T09:41:32;101425.97;;;14.39;55.41
60307;BME280;46155;52.364;6.580;2023-04-10T09:44:08;101435.59;;;14.38;56.17
60307;BME280;46155;52.364;6.580;2023-04-10T09:46:34;101433.97;;;14.40;56.03
60307;BME280;46155;52.364;6.580;2023-04-10T09:48:59;101424.63;;;14.47;56.62
60307;BME280;46155;52.364;6.580;2023-04-10T09:51:33;101420.59;;;14.54;55.44
60307;BME280;46155;52.364;6.580;2023-04-10T09:54:00;101416.00;;;14.83;56.41
60307;BME280;46155;52.364;6.580;2023-04-10T09:56:27;101407.88;;;15.12;55.93
60307;BME280;46155;52.364;6.580;2023-04-10T09:58:56;101407.59;;;15.24;54.25
60307;BME280;46155;52.364;6.580;2023-04-10T10:01:27;101397.47;;;15.15;52.96
60307;BME280;46155;52.364;6.580;2023-04-10T10:04:00;101398.97;;;15.10;54.14
60307;BME280;46155;52.364;6.580;2023-04-10T10:06:26;101392.59;;;15.07;52.98
60307;BME280;46155;52.364;6.580;2023-04-10T10:08:53;101382.94;;;15.07;53.69
60307;BME280;46155;52.364;6.580;2023-04-10T10:11:20;101384.31;;;15.17;53.76
60307;BME280;46155;52.364;6.580;2023-04-10T10:13:49;101361.63;;;15.04;52.00
60307;BME280;46155;52.364;6.580;2023-04-10T10:16:28;101366.06;;;15.05;53.54
60307;BME280;46155;52.364;6.580;2023-04-10T10:21:33;101337.47;;;15.14;54.76
60307;BME280;46155;52.364;6.580;2023-04-10T10:24:00;101332.25;;;15.16;54.61
60307;BME280;46155;52.364;6.580;2023-04-10T10:26:26;101317.94;;;15.12;54.70
60307;BME280;46155;52.364;6.580;2023-04-10T10:28:54;101321.53;;;15.13;54.86
60307;BME280;46155;52.364;6.580;2023-04-10T10:31:20;101318.28;;;15.19;53.12
60307;BME280;46155;52.364;6.580;2023-04-10T10:33:50;101317.94;;;15.12;52.78
60307;BME280;46155;52.364;6.580;2023-04-10T10:36:16;101299.81;;;15.02;53.99
60307;BME280;46155;52.364;6.580;2023-04-10T10:38:55;101310.09;;;14.96;54.48
60307;BME280;46155;52.364;6.580;2023-04-10T10:41:24;101303.13;;;14.98;54.02
60307;BME280;46155;52.364;6.580;2023-04-10T10:44:11;101299.50;;;14.96;53.67
60307;BME280;46155;52.364;6.580;2023-04-10T10:46:44;101290.06;;;15.01;56.07
60307;BME280;46155;52.364;6.580;2023-04-10T10:49:10;101292.25;;;14.92;54.41
60307;BME280;46155;52.364;6.580;2023-04-10T10:51:49;101290.19;;;14.86;53.78
60307;BME280;46155;52.364;6.580;2023-04-10T10:54:34;101284.69;;;14.82;56.17
60307;BME280;46155;52.364;6.580;2023-04-10T10:57:02;101281.03;;;14.79;54.31
60307;BME280;46155;52.364;6.580;2023-04-10T11:02:16;101274.91;;;14.97;56.21
60307;BME280;46155;52.364;6.580;2023-04-10T11:04:43;101273.53;;;15.05;54.49
60307;BME280;46155;52.364;6.580;2023-04-10T11:07:09;101264.78;;;15.06;53.54
60307;BME280;46155;52.364;6.580;2023-04-10T11:12:21;101270.44;;;14.96;54.50
60307;BME280;46155;52.364;6.580;2023-04-10T11:15:00;101250.72;;;15.07;56.32
60307;BME280;46155;52.364;6.580;2023-04-10T11:17:49;101254.81;;;15.37;56.79
60307;BME280;46155;52.364;6.580;2023-04-10T11:20:16;101241.47;;;15.53;55.94
60307;BME280;46155;52.364;6.580;2023-04-10T11:23:09;101251.88;;;15.68;55.56
60307;BME280;46155;52.364;6.580;2023-04-10T11:25:52;101242.66;;;15.60;53.53
60307;BME280;46155;52.364;6.580;2023-04-10T11:28:38;101233.53;;;15.35;55.12
60307;BME280;46155;52.364;6.580;2023-04-10T11:31:15;101226.13;;;15.28;54.69
60307;BME280;46155;52.364;6.580;2023-04-10T11:33:42;101221.94;;;15.13;54.64
60307;BME280;46155;52.364;6.580;2023-04-10T11:36:07;101212.88;;;15.08;55.45
60307;BME280;46155;52.364;6.580;2023-04-10T11:38:33;101214.81;;;15.12;56.26
60307;BME280;46155;52.364;6.580;2023-04-10T11:41:03;101209.84;;;15.19;55.48
60307;BME280;46155;52.364;6.580;2023-04-10T11:43:31;101206.75;;;15.09;55.45
60307;BME280;46155;52.364;6.580;2023-04-10T11:45:59;101194.53;;;15.11;55.99
60307;BME280;46155;52.364;6.580;2023-04-10T11:48:26;101188.38;;;15.12;56.59
60307;BME280;46155;52.364;6.580;2023-04-10T11:50:52;101186.59;;;15.11;55.93
60307;BME280;46155;52.364;6.580;2023-04-10T11:53:18;101185.72;;;15.12;56.61
60307;BME280;46155;52.364;6.580;2023-04-10T11:55:44;101176.06;;;15.13;56.52
60307;BME280;46155;52.364;6.580;2023-04-10T11:58:23;101168.34;;;15.18;55.96
60307;BME280;46155;52.364;6.580;2023-04-10T12:01:00;101168.63;;;15.24;55.68
60307;BME280;46155;52.364;6.580;2023-04-10T12:03:36;101172.56;;;15.32;55.85
60307;BME280;46155;52.364;6.580;2023-04-10T12:06:03;101164.38;;;15.45;55.70
60307;BME280;46155;52.364;6.580;2023-04-10T12:08:42;101160.97;;;15.48;55.73
60307;BME280;46155;52.364;6.580;2023-04-10T12:11:09;101163.00;;;15.54;54.66
60307;BME280;46155;52.364;6.580;2023-04-10T12:13:35;101160.44;;;15.55;55.98
60307;BME280;46155;52.364;6.580;2023-04-10T12:16:04;101150.31;;;15.66;55.10
60307;BME280;46155;52.364;6.580;2023-04-10T12:18:30;101147.91;;;15.71;54.42
60307;BME280;46155;52.364;6.580;2023-04-10T12:20:57;101140.03;;;15.72;54.94
60307;BME280;46155;52.364;6.580;2023-04-10T12:23:23;101132.34;;;15.78;54.24
60307;BME280;46155;52.364;6.580;2023-04-10T12:25:49;101138.31;;;15.92;56.34
60307;BME280;46155;52.364;6.580;2023-04-10T12:28:19;101122.16;;;16.07;55.74
60307;BME280;46155;52.364;6.580;2023-04-10T12:30:49;101135.44;;;16.28;55.04
60307;BME280;46155;52.364;6.580;2023-04-10T12:33:21;101129.88;;;16.43;53.63
60307;BME280;46155;52.364;6.580;2023-04-10T12:35:47;101120.78;;;16.37;53.04
60307;BME280;46155;52.364;6.580;2023-04-10T12:38:12;101127.81;;;16.36;54.61
60307;BME280;46155;52.364;6.580;2023-04-10T12:40:37;101120.25;;;16.24;53.21
60307;BME280;46155;52.364;6.580;2023-04-10T12:43:04;101111.16;;;16.17;54.60
60307;BME280;46155;52.364;6.580;2023-04-10T12:45:43;101114.22;;;16.07;53.80
60307;BME280;46155;52.364;6.580;2023-04-10T12:48:08;101114.50;;;16.13;54.71
60307;BME280;46155;52.364;6.580;2023-04-10T12:50:45;101114.88;;;16.23;55.36
60307;BME280;46155;52.364;6.580;2023-04-10T12:53:11;101108.28;;;16.13;52.83
60307;BME280;46155;52.364;6.580;2023-04-10T12:55:38;101112.16;;;16.00;52.86
60307;BME280;46155;52.364;6.580;2023-04-10T12:58:18;101106.47;;;15.91;52.83
60307;BME280;46155;52.364;6.580;2023-04-10T13:00:45;101098.66;;;15.94;53.76
60307;BME280;46155;52.364;6.580;2023-04-10T13:03:11;101093.41;;;15.95;54.31
60307;BME280;46155;52.364;6.580;2023-04-10T13:05:36;101078.22;;;15.91;54.90
60307;BME280;46155;52.364;6.580;2023-04-10T13:08:02;101071.97;;;15.89;54.95
60307;BME280;46155;52.364;6.580;2023-04-10T13:10:27;101095.66;;;15.86;53.66
60307;BME280;46155;52.364;6.580;2023-04-10T13:12:52;101088.44;;;15.82;54.20
60307;BME280;46155;52.364;6.580;2023-04-10T13:15:18;101074.13;;;15.78;54.30
60307;BME280;46155;52.364;6.580;2023-04-10T13:17:44;101067.16;;;15.80;53.94
60307;BME280;46155;52.364;6.580;2023-04-10T13:20:09;101054.47;;;15.73;54.23
60307;BME280;46155;52.364;6.580;2023-04-10T13:22:35;101051.75;;;15.72;53.94
60307;BME280;46155;52.364;6.580;2023-04-10T13:25:00;101045.38;;;15.66;54.29
60307;BME280;46155;52.364;6.580;2023-04-10T13:27:27;101024.34;;;15.70;53.77
60307;BME280;46155;52.364;6.580;2023-04-10T13:29:53;101025.78;;;15.63;54.47
60307;BME280;46155;52.364;6.580;2023-04-10T13:32:18;101016.25;;;15.66;55.52
60307;BME280;46155;52.364;6.580;2023-04-10T13:34:43;101014.50;;;15.67;54.08
60307;BME280;46155;52.364;6.580;2023-04-10T13:37:09;100994.75;;;15.59;53.52
60307;BME280;46155;52.364;6.580;2023-04-10T13:39:37;100989.84;;;15.47;52.35
60307;BME280;46155;52.364;6.580;2023-04-10T13:42:02;101001.19;;;15.44;53.84
60307;BME280;46155;52.364;6.580;2023-04-10T13:44:27;100979.88;;;15.41;54.14
60307;BME280;46155;52.364;6.580;2023-04-10T13:46:53;100978.50;;;15.30;54.31
60307;BME280;46155;52.364;6.580;2023-04-10T13:49:19;100979.06;;;15.23;53.97
60307;BME280;46155;52.364;6.580;2023-04-10T13:51:46;100973.84;;;15.24;54.56
60307;BME280;46155;52.364;6.580;2023-04-10T13:54:11;100972.09;;;15.25;53.32
60307;BME280;46155;52.364;6.580;2023-04-10T13:56:37;100948.94;;;15.19;54.21
60307;BME280;46155;52.364;6.580;2023-04-10T13:59:03;100958.09;;;15.27;54.08
60307;BME280;46155;52.364;6.580;2023-04-10T14:01:28;100952.50;;;15.20;54.09
60307;BME280;46155;52.364;6.580;2023-04-10T14:03:54;100940.81;;;15.14;55.30
60307;BME280;46155;52.364;6.580;2023-04-10T14:06:19;100944.06;;;15.09;55.14
60307;BME280;46155;52.364;6.580;2023-04-10T14:08:44;100945.53;;;15.02;54.98
60307;BME280;46155;52.364;6.580;2023-04-10T14:11:10;100938.44;;;15.01;54.41
60307;BME280;46155;52.364;6.580;2023-04-10T14:13:35;100930.59;;;15.03;55.56
60307;BME280;46155;52.364;6.580;2023-04-10T14:16:00;100919.78;;;14.98;54.88
60307;BME280;46155;52.364;6.580;2023-04-10T14:18:29;100912.78;;;14.98;53.88
60307;BME280;46155;52.364;6.580;2023-04-10T14:20:54;100908.50;;;15.02;55.06
60307;BME280;46155;52.364;6.580;2023-04-10T14:23:19;100900.25;;;14.94;55.68
60307;BME280;46155;52.364;6.580;2023-04-10T14:25:48;100893.91;;;14.91;54.78
60307;BME280;46155;52.364;6.580;2023-04-10T14:28:14;100879.75;;;14.89;55.31
60307;BME280;46155;52.364;6.580;2023-04-10T14:30:45;100876.66;;;14.79;55.26
60307;BME280;46155;52.364;6.580;2023-04-10T14:33:12;100876.59;;;14.78;54.95
60307;BME280;46155;52.364;6.580;2023-04-10T14:35:37;100873.13;;;14.79;56.25
60307;BME280;46155;52.364;6.580;2023-04-10T14:38:03;100867.78;;;14.77;55.40
60307;BME280;46155;52.364;6.580;2023-04-10T14:40:28;100874.72;;;14.75;56.75
60307;BME280;46155;52.364;6.580;2023-04-10T14:42:53;100865.91;;;14.75;55.41
60307;BME280;46155;52.364;6.580;2023-04-10T14:45:19;100839.97;;;14.66;55.29
60307;BME280;46155;52.364;6.580;2023-04-10T14:47:44;100866.81;;;14.75;55.88
60307;BME280;46155;52.364;6.580;2023-04-10T14:50:10;100860.56;;;14.73;56.80
60307;BME280;46155;52.364;6.580;2023-04-10T14:52:35;100865.78;;;14.72;56.45
60307;BME280;46155;52.364;6.580;2023-04-10T14:55:01;100858.53;;;14.68;56.46
60307;BME280;46155;52.364;6.580;2023-04-10T14:57:26;100841.75;;;14.67;56.26
60307;BME280;46155;52.364;6.580;2023-04-10T14:59:53;100830.19;;;14.63;56.12
60307;BME280;46155;52.364;6.580;2023-04-10T15:02:19;100827.59;;;14.65;55.83
60307;BME280;46155;52.364;6.580;2023-04-10T15:04:44;100827.72;;;14.68;55.69
60307;BME280;46155;52.364;6.580;2023-04-10T15:07:10;100817.97;;;14.67;55.45
60307;BME280;46155;52.364;6.580;2023-04-10T15:09:36;100825.91;;;14.67;55.97
60307;BME280;46155;52.364;6.580;2023-04-10T15:12:01;100818.97;;;14.69;56.10
60307;BME280;46155;52.364;6.580;2023-04-10T15:16:55;100805.81;;;14.71;57.03
60307;BME280;46155;52.364;6.580;2023-04-10T15:19:21;100796.03;;;14.68;56.08
60307;BME280;46155;52.364;6.580;2023-04-10T15:21:46;100795.50;;;14.77;55.80
60307;BME280;46155;52.364;6.580;2023-04-10T15:24:11;100796.56;;;14.80;55.33
60307;BME280;46155;52.364;6.580;2023-04-10T15:26:41;100793.84;;;14.79;55.96
60307;BME280;46155;52.364;6.580;2023-04-10T15:29:07;100781.66;;;14.83;55.87
60307;BME280;46155;52.364;6.580;2023-04-10T15:31:32;100784.47;;;14.86;55.67
60307;BME280;46155;52.364;6.580;2023-04-10T15:33:58;100776.59;;;14.87;56.10
60307;BME280;46155;52.364;6.580;2023-04-10T15:36:23;100773.91;;;14.86;55.55
60307;BME280;46155;52.364;6.580;2023-04-10T15:38:48;100766.66;;;14.82;55.58
60307;BME280;46155;52.364;6.580;2023-04-10T15:41:13;100766.78;;;14.85;56.52
60307;BME280;46155;52.364;6.580;2023-04-10T15:43:39;100756.22;;;14.85;55.69
60307;BME280;46155;52.364;6.580;2023-04-10T15:46:06;100760.88;;;14.90;55.43
60307;BME280;46155;52.364;6.580;2023-04-10T15:48:31;100748.41;;;14.88;55.79
60307;BME280;46155;52.364;6.580;2023-04-10T15:50:57;100758.34;;;14.93;56.92
60307;BME280;46155;52.364;6.580;2023-04-10T15:53:23;100753.94;;;14.94;56.57
60307;BME280;46155;52.364;6.580;2023-04-10T15:55:48;100752.09;;;14.91;58.20
60307;BME280;46155;52.364;6.580;2023-04-10T15:58:13;100744.09;;;14.90;58.00
60307;BME280;46155;52.364;6.580;2023-04-10T16:00:39;100736.03;;;14.87;59.50
60307;BME280;46155;52.364;6.580;2023-04-10T16:03:04;100733.25;;;14.84;60.87
60307;BME280;46155;52.364;6.580;2023-04-10T16:05:29;100735.44;;;14.73;63.58
60307;BME280;46155;52.364;6.580;2023-04-10T16:07:55;100726.25;;;14.63;62.83